sensor_id;sensor_type;location;lat;lon;timestamp;P1;durP1;ratioP1;P2;durP2;ratioP2
32323;SDS011;25666;44.350;9.222;2023-04-03T00:01:02;1.75;;;0.98;;
32323;SDS011;25666;44.350;9.222;2023-04-03T00:03:27;1.08;;;0.93;;
32323;SDS011;25666;44.350;9.222;2023-04-03T00:05:53;1.02;;;0.93;;
32323;SDS011;25666;44.350;9.222;2023-04-03T00:08:19;7.47;;;1.20;;
32323;SDS011;25666;44.350;9.222;2023-04-03T00:10:45;0.95;;;0.70;;
32323;SDS011;25666;44.350;9.222;2023-04-03T00:13:11;0.90;;;0.75;;
32323;SDS011;25666;44.350;9.222;2023-04-03T00:15:37;1.38;;;0.80;;
32323;SDS011;25666;44.350;9.222;2023-04-03T00:18:03;2.22;;;0.93;;
32323;SDS011;25666;44.350;9.222;2023-04-03T00:20:28;1.08;;;0.70;;
32323;SDS011;25666;44.350;9.222;2023-04-03T00:22:54;0.90;;;0.68;;
32323;SDS011;25666;44.350;9.222;2023-04-03T00:25:20;0.60;;;0.60;;
32323;SDS011;25666;44.350;9.222;2023-04-03T00:27:46;0.73;;;0.63;;
32323;SDS011;25666;44.350;9.222;2023-04-03T00:30:13;2.50;;;0.70;;
32323;SDS011;25666;44.350;9.222;2023-04-03T00:32:40;0.75;;;0.65;;
32323;SDS011;25666;44.350;9.222;2023-04-03T00:35:06;0.75;;;0.55;;
32323;SDS011;25666;44.350;9.222;2023-04-03T00:37:32;0.93;;;0.60;;
32323;SDS011;25666;44.350;9.222;2023-04-03T00:39:58;1.33;;;0.70;;
32323;SDS011;25666;44.350;9.222;2023-04-03T00:42:23;4.18;;;0.80;;
32323;SDS011;25666;44.350;9.222;2023-04-03T00:47:29;1.80;;;0.47;;
32323;SDS011;25666;44.350;9.222;2023-04-03T00:49:56;2.40;;;0.60;;
32323;SDS011;25666;44.350;9.222;2023-04-03T00:52:25;0.63;;;0.52;;
32323;SDS011;25666;44.350;9.222;2023-04-03T00:54:56;1.00;;;0.80;;
32323;SDS011;25666;44.350;9.222;2023-04-03T00:57:26;1.05;;;0.50;;
32323;SDS011;25666;44.350;9.222;2023-04-03T00:59:55;2.03;;;1.10;;
32323;SDS011;25666;44.350;9.222;2023-04-03T01:04:50;1.00;;;0.65;;
32323;SDS011;25666;44.350;9.222;2023-04-03T01:07:20;2.13;;;0.55;;
32323;SDS011;25666;44.350;9.222;2023-04-03T01:09:50;1.15;;;0.70;;
32323;SDS011;25666;44.350;9.222;2023-04-03T01:14:50;0.50;;;0.50;;
32323;SDS011;25666;44.350;9.222;2023-04-03T01:17:24;1.48;;;0.73;;
32323;SDS011;25666;44.350;9.222;2023-04-03T01:25:46;1.05;;;0.70;;
32323;SDS011;25666;44.350;9.222;2023-04-03T01:28:15;0.73;;;0.65;;
32323;SDS011;25666;44.350;9.222;2023-04-03T01:30:58;0.45;;;0.45;;
32323;SDS011;25666;44.350;9.222;2023-04-03T01:33:31;0.68;;;0.60;;
32323;SDS011;25666;44.350;9.222;2023-04-03T01:35:57;1.40;;;0.60;;
32323;SDS011;25666;44.350;9.222;2023-04-03T01:38:23;2.67;;;0.68;;
32323;SDS011;25666;44.350;9.222;2023-04-03T01:40:49;1.17;;;0.77;;
32323;SDS011;25666;44.350;9.222;2023-04-03T01:43:14;0.88;;;0.70;;
32323;SDS011;25666;44.350;9.222;2023-04-03T01:45:40;0.52;;;0.52;;
32323;SDS011;25666;44.350;9.222;2023-04-03T01:48:05;0.43;;;0.43;;
32323;SDS011;25666;44.350;9.222;2023-04-03T01:50:31;2.72;;;0.80;;
32323;SDS011;25666;44.350;9.222;2023-04-03T01:52:56;0.70;;;0.70;;
32323;SDS011;25666;44.350;9.222;2023-04-03T01:55:22;1.48;;;0.85;;
32323;SDS011;25666;44.350;9.222;2023-04-03T01:57:48;0.73;;;0.60;;
32323;SDS011;25666;44.350;9.222;2023-04-03T02:00:13;5.88;;;0.70;;
32323;SDS011;25666;44.350;9.222;2023-04-03T02:02:40;1.15;;;0.65;;
32323;SDS011;25666;44.350;9.222;2023-04-03T02:05:06;1.50;;;0.70;;
32323;SDS011;25666;44.350;9.222;2023-04-03T02:07:31;1.02;;;0.73;;
32323;SDS011;25666;44.350;9.222;2023-04-03T02:09:57;0.77;;;0.60;;
32323;SDS011;25666;44.350;9.222;2023-04-03T02:12:22;1.48;;;1.38;;
32323;SDS011;25666;44.350;9.222;2023-04-03T02:14:48;1.75;;;1.00;;
32323;SDS011;25666;44.350;9.222;2023-04-03T02:17:13;0.70;;;0.70;;
32323;SDS011;25666;44.350;9.222;2023-04-03T02:19:40;0.60;;;0.50;;
32323;SDS011;25666;44.350;9.222;2023-04-03T02:22:05;0.43;;;0.40;;
32323;SDS011;25666;44.350;9.222;2023-04-03T02:24:31;0.77;;;0.63;;
32323;SDS011;25666;44.350;9.222;2023-04-03T02:26:58;1.13;;;0.70;;
32323;SDS011;25666;44.350;9.222;2023-04-03T02:29:24;2.20;;;0.70;;
32323;SDS011;25666;44.350;9.222;2023-04-03T02:31:50;1.77;;;0.90;;
32323;SDS011;25666;44.350;9.222;2023-04-03T02:34:16;1.30;;;0.70;;
32323;SDS011;25666;44.350;9.222;2023-04-03T02:36:42;1.60;;;1.48;;
32323;SDS011;25666;44.350;9.222;2023-04-03T02:39:09;1.23;;;0.80;;
32323;SDS011;25666;44.350;9.222;2023-04-03T02:41:35;1.23;;;0.90;;
32323;SDS011;25666;44.350;9.222;2023-04-03T02:44:02;1.05;;;0.93;;
32323;SDS011;25666;44.350;9.222;2023-04-03T02:46:30;3.63;;;1.00;;
32323;SDS011;25666;44.350;9.222;2023-04-03T02:48:56;0.77;;;0.77;;
32323;SDS011;25666;44.350;9.222;2023-04-03T02:51:22;1.00;;;0.90;;
32323;SDS011;25666;44.350;9.222;2023-04-03T02:53:52;1.58;;;1.10;;
32323;SDS011;25666;44.350;9.222;2023-04-03T02:56:21;2.70;;;1.70;;
32323;SDS011;25666;44.350;9.222;2023-04-03T02:58:47;0.82;;;0.82;;
32323;SDS011;25666;44.350;9.222;2023-04-03T03:01:13;1.02;;;0.80;;
32323;SDS011;25666;44.350;9.222;2023-04-03T03:03:39;2.25;;;0.90;;
32323;SDS011;25666;44.350;9.222;2023-04-03T03:06:06;1.83;;;0.90;;
32323;SDS011;25666;44.350;9.222;2023-04-03T03:08:36;1.30;;;0.80;;
32323;SDS011;25666;44.350;9.222;2023-04-03T03:11:03;1.25;;;0.80;;
32323;SDS011;25666;44.350;9.222;2023-04-03T03:13:29;2.65;;;0.85;;
32323;SDS011;25666;44.350;9.222;2023-04-03T03:15:55;2.35;;;0.90;;
32323;SDS011;25666;44.350;9.222;2023-04-03T03:18:21;1.73;;;0.80;;
32323;SDS011;25666;44.350;9.222;2023-04-03T03:20:54;2.97;;;1.05;;
32323;SDS011;25666;44.350;9.222;2023-04-03T03:23:22;2.65;;;1.17;;
32323;SDS011;25666;44.350;9.222;2023-04-03T03:25:53;5.38;;;0.80;;
32323;SDS011;25666;44.350;9.222;2023-04-03T03:28:20;1.20;;;0.90;;
32323;SDS011;25666;44.350;9.222;2023-04-03T03:30:46;2.95;;;1.00;;
32323;SDS011;25666;44.350;9.222;2023-04-03T03:33:13;2.00;;;1.00;;
32323;SDS011;25666;44.350;9.222;2023-04-03T03:35:38;3.50;;;0.90;;
32323;SDS011;25666;44.350;9.222;2023-04-03T03:38:04;1.95;;;0.88;;
32323;SDS011;25666;44.350;9.222;2023-04-03T03:40:31;3.85;;;1.00;;
32323;SDS011;25666;44.350;9.222;2023-04-03T03:42:57;1.58;;;0.88;;
32323;SDS011;25666;44.350;9.222;2023-04-03T03:45:22;1.65;;;1.10;;
32323;SDS011;25666;44.350;9.222;2023-04-03T03:47:48;9.85;;;1.00;;
32323;SDS011;25666;44.350;9.222;2023-04-03T03:50:14;4.50;;;1.35;;
32323;SDS011;25666;44.350;9.222;2023-04-03T03:52:40;1.73;;;1.10;;
32323;SDS011;25666;44.350;9.222;2023-04-03T03:55:05;1.05;;;1.00;;
32323;SDS011;25666;44.350;9.222;2023-04-03T03:57:34;1.73;;;1.15;;
32323;SDS011;25666;44.350;9.222;2023-04-03T04:00:00;1.77;;;1.50;;
32323;SDS011;25666;44.350;9.222;2023-04-03T04:02:26;4.10;;;1.60;;
32323;SDS011;25666;44.350;9.222;2023-04-03T04:04:52;1.13;;;0.98;;
32323;SDS011;25666;44.350;9.222;2023-04-03T04:07:18;4.50;;;1.10;;
32323;SDS011;25666;44.350;9.222;2023-04-03T04:09:44;1.40;;;1.30;;
32323;SDS011;25666;44.350;9.222;2023-04-03T04:12:09;2.75;;;1.10;;
32323;SDS011;25666;44.350;9.222;2023-04-03T04:14:36;4.60;;;1.30;;
32323;SDS011;25666;44.350;9.222;2023-04-03T04:17:02;5.28;;;1.20;;
32323;SDS011;25666;44.350;9.222;2023-04-03T04:19:28;2.10;;;1.35;;
32323;SDS011;25666;44.350;9.222;2023-04-03T04:21:54;4.97;;;1.23;;
32323;SDS011;25666;44.350;9.222;2023-04-03T04:24:20;5.50;;;1.48;;
32323;SDS011;25666;44.350;9.222;2023-04-03T04:26:49;7.68;;;1.38;;
32323;SDS011;25666;44.350;9.222;2023-04-03T04:29:16;3.00;;;2.08;;
32323;SDS011;25666;44.350;9.222;2023-04-03T04:31:44;2.10;;;1.48;;
32323;SDS011;25666;44.350;9.222;2023-04-03T04:34:10;3.13;;;2.45;;
32323;SDS011;25666;44.350;9.222;2023-04-03T04:36:37;4.18;;;1.80;;
32323;SDS011;25666;44.350;9.222;2023-04-03T04:39:03;6.72;;;1.67;;
32323;SDS011;25666;44.350;9.222;2023-04-03T04:41:29;1.65;;;1.50;;
32323;SDS011;25666;44.350;9.222;2023-04-03T04:43:55;3.83;;;1.00;;
32323;SDS011;25666;44.350;9.222;2023-04-03T04:46:22;4.05;;;1.20;;
32323;SDS011;25666;44.350;9.222;2023-04-03T04:48:52;1.35;;;1.20;;
32323;SDS011;25666;44.350;9.222;2023-04-03T04:51:19;4.00;;;1.00;;
32323;SDS011;25666;44.350;9.222;2023-04-03T04:53:45;1.95;;;1.25;;
32323;SDS011;25666;44.350;9.222;2023-04-03T04:56:13;3.60;;;1.85;;
32323;SDS011;25666;44.350;9.222;2023-04-03T04:58:39;3.55;;;1.40;;
32323;SDS011;25666;44.350;9.222;2023-04-03T05:01:06;1.95;;;1.50;;
32323;SDS011;25666;44.350;9.222;2023-04-03T05:03:37;3.70;;;1.23;;
32323;SDS011;25666;44.350;9.222;2023-04-03T05:06:03;3.03;;;1.42;;
32323;SDS011;25666;44.350;9.222;2023-04-03T05:08:31;6.25;;;1.60;;
32323;SDS011;25666;44.350;9.222;2023-04-03T05:10:58;2.33;;;1.33;;
32323;SDS011;25666;44.350;9.222;2023-04-03T05:13:25;5.05;;;1.45;;
32323;SDS011;25666;44.350;9.222;2023-04-03T05:15:51;6.28;;;2.10;;
32323;SDS011;25666;44.350;9.222;2023-04-03T05:18:16;8.27;;;3.40;;
32323;SDS011;25666;44.350;9.222;2023-04-03T05:20:42;5.88;;;2.15;;
32323;SDS011;25666;44.350;9.222;2023-04-03T05:23:09;4.43;;;1.90;;
32323;SDS011;25666;44.350;9.222;2023-04-03T05:25:37;6.43;;;2.22;;
32323;SDS011;25666;44.350;9.222;2023-04-03T05:28:04;3.10;;;1.67;;
32323;SDS011;25666;44.350;9.222;2023-04-03T05:30:29;3.30;;;1.58;;
32323;SDS011;25666;44.350;9.222;2023-04-03T05:32:55;5.72;;;1.50;;
32323;SDS011;25666;44.350;9.222;2023-04-03T05:35:31;4.20;;;1.42;;
32323;SDS011;25666;44.350;9.222;2023-04-03T05:37:59;3.03;;;1.70;;
32323;SDS011;25666;44.350;9.222;2023-04-03T05:40:25;5.07;;;1.83;;
32323;SDS011;25666;44.350;9.222;2023-04-03T05:42:53;4.15;;;1.52;;
32323;SDS011;25666;44.350;9.222;2023-04-03T05:45:21;3.97;;;1.88;;
32323;SDS011;25666;44.350;9.222;2023-04-03T05:47:47;8.13;;;3.75;;
32323;SDS011;25666;44.350;9.222;2023-04-03T05:50:13;6.20;;;1.80;;
32323;SDS011;25666;44.350;9.222;2023-04-03T05:52:40;6.00;;;1.98;;
32323;SDS011;25666;44.350;9.222;2023-04-03T05:55:10;4.80;;;2.70;;
32323;SDS011;25666;44.350;9.222;2023-04-03T05:57:36;6.30;;;2.50;;
32323;SDS011;25666;44.350;9.222;2023-04-03T06:00:06;3.00;;;1.85;;
32323;SDS011;25666;44.350;9.222;2023-04-03T06:02:39;8.50;;;1.88;;
32323;SDS011;25666;44.350;9.222;2023-04-03T06:05:06;9.63;;;2.90;;
32323;SDS011;25666;44.350;9.222;2023-04-03T06:07:33;10.77;;;2.58;;
32323;SDS011;25666;44.350;9.222;2023-04-03T06:09:59;9.30;;;3.42;;
32323;SDS011;25666;44.350;9.222;2023-04-03T06:12:25;8.57;;;2.92;;
32323;SDS011;25666;44.350;9.222;2023-04-03T06:14:51;6.57;;;2.33;;
32323;SDS011;25666;44.350;9.222;2023-04-03T06:17:17;6.72;;;2.10;;
32323;SDS011;25666;44.350;9.222;2023-04-03T06:19:43;12.23;;;2.10;;
32323;SDS011;25666;44.350;9.222;2023-04-03T06:22:09;7.35;;;2.63;;
32323;SDS011;25666;44.350;9.222;2023-04-03T06:24:36;5.35;;;2.03;;
32323;SDS011;25666;44.350;9.222;2023-04-03T06:27:02;6.80;;;1.90;;
32323;SDS011;25666;44.350;9.222;2023-04-03T06:29:27;2.70;;;1.73;;
32323;SDS011;25666;44.350;9.222;2023-04-03T06:31:53;11.60;;;2.00;;
32323;SDS011;25666;44.350;9.222;2023-04-03T06:34:18;2.63;;;1.48;;
32323;SDS011;25666;44.350;9.222;2023-04-03T06:36:45;6.07;;;2.00;;
32323;SDS011;25666;44.350;9.222;2023-04-03T06:39:18;9.10;;;2.63;;
32323;SDS011;25666;44.350;9.222;2023-04-03T06:41:48;13.80;;;1.80;;
32323;SDS011;25666;44.350;9.222;2023-04-03T06:44:15;8.18;;;2.00;;
32323;SDS011;25666;44.350;9.222;2023-04-03T06:46:43;9.18;;;3.42;;
32323;SDS011;25666;44.350;9.222;2023-04-03T06:49:10;8.55;;;2.13;;
32323;SDS011;25666;44.350;9.222;2023-04-03T06:51:36;4.78;;;2.30;;
32323;SDS011;25666;44.350;9.222;2023-04-03T06:54:02;17.77;;;4.07;;
32323;SDS011;25666;44.350;9.222;2023-04-03T06:56:30;26.50;;;3.20;;
32323;SDS011;25666;44.350;9.222;2023-04-03T06:58:55;30.25;;;3.40;;
32323;SDS011;25666;44.350;9.222;2023-04-03T07:01:26;77.22;;;8.98;;
32323;SDS011;25666;44.350;9.222;2023-04-03T07:03:53;84.25;;;8.57;;
32323;SDS011;25666;44.350;9.222;2023-04-03T07:06:18;10.18;;;2.58;;
32323;SDS011;25666;44.350;9.222;2023-04-03T07:08:44;13.35;;;2.15;;
32323;SDS011;25666;44.350;9.222;2023-04-03T07:11:11;10.52;;;3.08;;
32323;SDS011;25666;44.350;9.222;2023-04-03T07:13:37;16.17;;;2.65;;
32323;SDS011;25666;44.350;9.222;2023-04-03T07:16:03;12.43;;;2.10;;
32323;SDS011;25666;44.350;9.222;2023-04-03T07:18:30;7.85;;;2.55;;
32323;SDS011;25666;44.350;9.222;2023-04-03T07:20:57;9.73;;;2.85;;
32323;SDS011;25666;44.350;9.222;2023-04-03T07:23:22;4.93;;;1.85;;
32323;SDS011;25666;44.350;9.222;2023-04-03T07:25:49;6.72;;;2.30;;
32323;SDS011;25666;44.350;9.222;2023-04-03T07:28:16;8.73;;;1.88;;
32323;SDS011;25666;44.350;9.222;2023-04-03T07:30:43;8.43;;;2.72;;
32323;SDS011;25666;44.350;9.222;2023-04-03T07:33:10;10.32;;;1.98;;
32323;SDS011;25666;44.350;9.222;2023-04-03T07:35:36;6.47;;;2.15;;
32323;SDS011;25666;44.350;9.222;2023-04-03T07:38:02;8.55;;;2.45;;
32323;SDS011;25666;44.350;9.222;2023-04-03T07:40:28;7.53;;;2.35;;
32323;SDS011;25666;44.350;9.222;2023-04-03T07:42:53;11.68;;;2.40;;
32323;SDS011;25666;44.350;9.222;2023-04-03T07:45:20;8.38;;;3.03;;
32323;SDS011;25666;44.350;9.222;2023-04-03T07:47:45;6.03;;;2.13;;
32323;SDS011;25666;44.350;9.222;2023-04-03T07:50:11;10.63;;;2.38;;
32323;SDS011;25666;44.350;9.222;2023-04-03T07:52:36;37.38;;;8.52;;
32323;SDS011;25666;44.350;9.222;2023-04-03T07:55:02;13.77;;;3.65;;
32323;SDS011;25666;44.350;9.222;2023-04-03T07:57:27;13.40;;;3.65;;
32323;SDS011;25666;44.350;9.222;2023-04-03T07:59:53;9.35;;;2.83;;
32323;SDS011;25666;44.350;9.222;2023-04-03T08:02:18;5.20;;;3.15;;
32323;SDS011;25666;44.350;9.222;2023-04-03T08:04:44;5.35;;;2.35;;
32323;SDS011;25666;44.350;9.222;2023-04-03T08:07:10;12.50;;;2.55;;
32323;SDS011;25666;44.350;9.222;2023-04-03T08:09:35;6.32;;;2.60;;
32323;SDS011;25666;44.350;9.222;2023-04-03T08:12:01;9.27;;;2.60;;
32323;SDS011;25666;44.350;9.222;2023-04-03T08:14:26;5.85;;;2.10;;
32323;SDS011;25666;44.350;9.222;2023-04-03T08:16:52;3.92;;;1.77;;
32323;SDS011;25666;44.350;9.222;2023-04-03T08:19:17;7.20;;;2.00;;
32323;SDS011;25666;44.350;9.222;2023-04-03T08:21:43;5.72;;;1.80;;
32323;SDS011;25666;44.350;9.222;2023-04-03T08:24:09;6.10;;;1.60;;
32323;SDS011;25666;44.350;9.222;2023-04-03T08:26:35;9.13;;;1.70;;
32323;SDS011;25666;44.350;9.222;2023-04-03T08:29:01;3.05;;;1.40;;
32323;SDS011;25666;44.350;9.222;2023-04-03T08:31:28;1.92;;;1.30;;
32323;SDS011;25666;44.350;9.222;2023-04-03T08:33:53;3.47;;;1.55;;
32323;SDS011;25666;44.350;9.222;2023-04-03T08:36:20;4.20;;;1.52;;
32323;SDS011;25666;44.350;9.222;2023-04-03T08:38:48;2.60;;;1.35;;
32323;SDS011;25666;44.350;9.222;2023-04-03T08:41:18;1.45;;;1.20;;
32323;SDS011;25666;44.350;9.222;2023-04-03T08:44:02;7.22;;;2.03;;
32323;SDS011;25666;44.350;9.222;2023-04-03T08:49:42;2.42;;;1.35;;
32323;SDS011;25666;44.350;9.222;2023-04-03T08:52:17;2.25;;;1.30;;
32323;SDS011;25666;44.350;9.222;2023-04-03T08:54:55;0.98;;;0.85;;
32323;SDS011;25666;44.350;9.222;2023-04-03T09:00:03;2.85;;;1.30;;
32323;SDS011;25666;44.350;9.222;2023-04-03T09:02:34;4.25;;;1.08;;
32323;SDS011;25666;44.350;9.222;2023-04-03T09:10:28;4.30;;;1.05;;
32323;SDS011;25666;44.350;9.222;2023-04-03T09:13:08;5.15;;;1.10;;
32323;SDS011;25666;44.350;9.222;2023-04-03T09:15:46;4.30;;;1.33;;
32323;SDS011;25666;44.350;9.222;2023-04-03T09:18:13;2.45;;;1.50;;
32323;SDS011;25666;44.350;9.222;2023-04-03T09:26:08;5.38;;;1.85;;
32323;SDS011;25666;44.350;9.222;2023-04-03T09:28:39;1.50;;;0.90;;
32323;SDS011;25666;44.350;9.222;2023-04-03T09:34:20;1.02;;;0.93;;
32323;SDS011;25666;44.350;9.222;2023-04-03T09:36:56;4.07;;;1.10;;
32323;SDS011;25666;44.350;9.222;2023-04-03T09:39:31;4.28;;;1.05;;
32323;SDS011;25666;44.350;9.222;2023-04-03T09:42:04;5.55;;;1.08;;
32323;SDS011;25666;44.350;9.222;2023-04-03T09:44:38;3.03;;;1.10;;
32323;SDS011;25666;44.350;9.222;2023-04-03T09:47:19;4.05;;;1.20;;
32323;SDS011;25666;44.350;9.222;2023-04-03T09:50:08;6.13;;;1.60;;
32323;SDS011;25666;44.350;9.222;2023-04-03T09:55:07;2.70;;;1.15;;
32323;SDS011;25666;44.350;9.222;2023-04-03T09:57:38;3.33;;;1.50;;
32323;SDS011;25666;44.350;9.222;2023-04-03T10:00:04;3.58;;;1.10;;
32323;SDS011;25666;44.350;9.222;2023-04-03T10:02:44;1.73;;;1.30;;
32323;SDS011;25666;44.350;9.222;2023-04-03T10:08:07;1.00;;;0.80;;
32323;SDS011;25666;44.350;9.222;2023-04-03T10:10:39;3.42;;;1.27;;
32323;SDS011;25666;44.350;9.222;2023-04-03T10:13:14;1.63;;;0.90;;
32323;SDS011;25666;44.350;9.222;2023-04-03T10:15:46;2.97;;;1.20;;
32323;SDS011;25666;44.350;9.222;2023-04-03T10:21:29;1.90;;;1.33;;
32323;SDS011;25666;44.350;9.222;2023-04-03T10:24:10;0.93;;;0.75;;
32323;SDS011;25666;44.350;9.222;2023-04-03T10:26:59;1.33;;;0.98;;
32323;SDS011;25666;44.350;9.222;2023-04-03T10:29:38;1.67;;;1.33;;
32323;SDS011;25666;44.350;9.222;2023-04-03T10:32:29;0.82;;;0.82;;
32323;SDS011;25666;44.350;9.222;2023-04-03T10:40:47;3.30;;;1.17;;
32323;SDS011;25666;44.350;9.222;2023-04-03T10:46:37;2.22;;;1.05;;
32323;SDS011;25666;44.350;9.222;2023-04-03T10:51:45;2.65;;;1.08;;
32323;SDS011;25666;44.350;9.222;2023-04-03T10:56:57;6.13;;;1.90;;
32323;SDS011;25666;44.350;9.222;2023-04-03T10:59:32;1.75;;;1.00;;
32323;SDS011;25666;44.350;9.222;2023-04-03T11:02:04;1.75;;;1.10;;
32323;SDS011;25666;44.350;9.222;2023-04-03T11:04:37;2.70;;;1.17;;
32323;SDS011;25666;44.350;9.222;2023-04-03T11:07:14;2.72;;;1.33;;
32323;SDS011;25666;44.350;9.222;2023-04-03T11:09:44;3.35;;;0.90;;
32323;SDS011;25666;44.350;9.222;2023-04-03T11:12:15;1.80;;;0.90;;
32323;SDS011;25666;44.350;9.222;2023-04-03T11:14:46;1.73;;;1.13;;
32323;SDS011;25666;44.350;9.222;2023-04-03T11:25:51;2.17;;;1.10;;
32323;SDS011;25666;44.350;9.222;2023-04-03T11:28:21;1.60;;;1.23;;
32323;SDS011;25666;44.350;9.222;2023-04-03T11:36:47;1.52;;;1.00;;
32323;SDS011;25666;44.350;9.222;2023-04-03T11:39:30;1.80;;;1.17;;
32323;SDS011;25666;44.350;9.222;2023-04-03T11:47:52;2.72;;;1.25;;
32323;SDS011;25666;44.350;9.222;2023-04-03T12:05:51;10.43;;;2.10;;
32323;SDS011;25666;44.350;9.222;2023-04-03T12:16:07;8.55;;;1.73;;
32323;SDS011;25666;44.350;9.222;2023-04-03T12:18:53;4.57;;;1.70;;
32323;SDS011;25666;44.350;9.222;2023-04-03T12:26:26;3.88;;;1.52;;
32323;SDS011;25666;44.350;9.222;2023-04-03T12:28:55;6.68;;;1.80;;
32323;SDS011;25666;44.350;9.222;2023-04-03T12:31:25;3.72;;;1.25;;
32323;SDS011;25666;44.350;9.222;2023-04-03T12:34:12;3.22;;;1.45;;
32323;SDS011;25666;44.350;9.222;2023-04-03T12:37:42;7.07;;;1.80;;
32323;SDS011;25666;44.350;9.222;2023-04-03T12:40:10;5.43;;;1.58;;
32323;SDS011;25666;44.350;9.222;2023-04-03T12:45:44;10.02;;;1.95;;
32323;SDS011;25666;44.350;9.222;2023-04-03T12:48:16;1.60;;;1.13;;
32323;SDS011;25666;44.350;9.222;2023-04-03T12:50:47;6.57;;;1.27;;
32323;SDS011;25666;44.350;9.222;2023-04-03T12:58:49;8.00;;;2.30;;
32323;SDS011;25666;44.350;9.222;2023-04-03T13:01:16;9.93;;;2.25;;
32323;SDS011;25666;44.350;9.222;2023-04-03T13:03:47;5.30;;;2.17;;
32323;SDS011;25666;44.350;9.222;2023-04-03T13:06:26;4.15;;;1.92;;
32323;SDS011;25666;44.350;9.222;2023-04-03T13:08:58;9.43;;;2.25;;
32323;SDS011;25666;44.350;9.222;2023-04-03T13:14:23;6.68;;;2.70;;
32323;SDS011;25666;44.350;9.222;2023-04-03T13:16:59;4.70;;;2.10;;
32323;SDS011;25666;44.350;9.222;2023-04-03T13:19:42;3.45;;;1.55;;
32323;SDS011;25666;44.350;9.222;2023-04-03T13:22:18;4.68;;;1.40;;
32323;SDS011;25666;44.350;9.222;2023-04-03T13:25:11;4.95;;;1.65;;
32323;SDS011;25666;44.350;9.222;2023-04-03T13:27:39;4.15;;;1.38;;
32323;SDS011;25666;44.350;9.222;2023-04-03T13:30:29;5.63;;;1.40;;
32323;SDS011;25666;44.350;9.222;2023-04-03T13:32:59;3.33;;;1.30;;
32323;SDS011;25666;44.350;9.222;2023-04-03T13:38:23;2.22;;;1.77;;
32323;SDS011;25666;44.350;9.222;2023-04-03T13:40:56;11.00;;;2.50;;
32323;SDS011;25666;44.350;9.222;2023-04-03T13:43:28;7.55;;;3.45;;
32323;SDS011;25666;44.350;9.222;2023-04-03T13:46:00;1.85;;;1.60;;
32323;SDS011;25666;44.350;9.222;2023-04-03T13:48:38;3.45;;;1.92;;
32323;SDS011;25666;44.350;9.222;2023-04-03T13:51:17;2.00;;;1.50;;
32323;SDS011;25666;44.350;9.222;2023-04-03T13:56:18;1.20;;;1.10;;
32323;SDS011;25666;44.350;9.222;2023-04-03T14:01:46;2.10;;;1.50;;
32323;SDS011;25666;44.350;9.222;2023-04-03T14:07:10;5.32;;;1.63;;
32323;SDS011;25666;44.350;9.222;2023-04-03T14:09:39;2.50;;;1.35;;
32323;SDS011;25666;44.350;9.222;2023-04-03T14:12:07;4.93;;;1.27;;
32323;SDS011;25666;44.350;9.222;2023-04-03T14:14:37;2.83;;;1.08;;
32323;SDS011;25666;44.350;9.222;2023-04-03T14:17:17;2.38;;;1.30;;
32323;SDS011;25666;44.350;9.222;2023-04-03T14:19:46;6.03;;;1.38;;
32323;SDS011;25666;44.350;9.222;2023-04-03T14:22:15;2.90;;;1.27;;
32323;SDS011;25666;44.350;9.222;2023-04-03T14:24:44;7.15;;;1.30;;
32323;SDS011;25666;44.350;9.222;2023-04-03T14:27:16;11.55;;;1.67;;
32323;SDS011;25666;44.350;9.222;2023-04-03T14:29:44;12.35;;;1.88;;
32323;SDS011;25666;44.350;9.222;2023-04-03T14:32:14;6.75;;;1.77;;
32323;SDS011;25666;44.350;9.222;2023-04-03T14:34:41;7.15;;;1.33;;
32323;SDS011;25666;44.350;9.222;2023-04-03T14:37:15;8.40;;;1.65;;
32323;SDS011;25666;44.350;9.222;2023-04-03T14:39:43;3.55;;;1.30;;
32323;SDS011;25666;44.350;9.222;2023-04-03T14:42:15;3.38;;;1.10;;
32323;SDS011;25666;44.350;9.222;2023-04-03T14:44:45;3.28;;;1.73;;
32323;SDS011;25666;44.350;9.222;2023-04-03T14:47:14;4.10;;;1.52;;
32323;SDS011;25666;44.350;9.222;2023-04-03T14:49:43;2.35;;;1.20;;
32323;SDS011;25666;44.350;9.222;2023-04-03T14:52:20;6.70;;;1.92;;
32323;SDS011;25666;44.350;9.222;2023-04-03T14:55:04;5.07;;;1.40;;
32323;SDS011;25666;44.350;9.222;2023-04-03T14:57:31;7.22;;;1.83;;
32323;SDS011;25666;44.350;9.222;2023-04-03T14:59:57;2.50;;;1.15;;
32323;SDS011;25666;44.350;9.222;2023-04-03T15:05:00;2.88;;;1.33;;
32323;SDS011;25666;44.350;9.222;2023-04-03T15:07:29;4.03;;;1.50;;
32323;SDS011;25666;44.350;9.222;2023-04-03T15:09:57;2.50;;;1.30;;
32323;SDS011;25666;44.350;9.222;2023-04-03T15:12:26;3.40;;;1.27;;
32323;SDS011;25666;44.350;9.222;2023-04-03T15:14:52;6.22;;;1.55;;
32323;SDS011;25666;44.350;9.222;2023-04-03T15:17:18;2.67;;;1.40;;
32323;SDS011;25666;44.350;9.222;2023-04-03T15:19:46;2.55;;;1.27;;
32323;SDS011;25666;44.350;9.222;2023-04-03T15:22:16;4.95;;;1.40;;
32323;SDS011;25666;44.350;9.222;2023-04-03T15:24:44;2.55;;;1.30;;
32323;SDS011;25666;44.350;9.222;2023-04-03T15:27:10;4.38;;;1.92;;
32323;SDS011;25666;44.350;9.222;2023-04-03T15:29:37;3.78;;;1.48;;
32323;SDS011;25666;44.350;9.222;2023-04-03T15:32:03;9.30;;;1.80;;
32323;SDS011;25666;44.350;9.222;2023-04-03T15:34:29;2.88;;;1.65;;
32323;SDS011;25666;44.350;9.222;2023-04-03T15:36:55;10.63;;;1.90;;
32323;SDS011;25666;44.350;9.222;2023-04-03T15:39:21;11.02;;;2.88;;
32323;SDS011;25666;44.350;9.222;2023-04-03T15:41:47;6.40;;;3.70;;
32323;SDS011;25666;44.350;9.222;2023-04-03T15:44:13;8.38;;;2.90;;
32323;SDS011;25666;44.350;9.222;2023-04-03T15:46:39;9.73;;;3.35;;
32323;SDS011;25666;44.350;9.222;2023-04-03T15:49:05;6.25;;;2.90;;
32323;SDS011;25666;44.350;9.222;2023-04-03T15:51:30;9.65;;;3.25;;
32323;SDS011;25666;44.350;9.222;2023-04-03T15:53:56;16.80;;;3.90;;
32323;SDS011;25666;44.350;9.222;2023-04-03T15:56:21;6.13;;;2.75;;
32323;SDS011;25666;44.350;9.222;2023-04-03T15:58:47;12.35;;;3.17;;
32323;SDS011;25666;44.350;9.222;2023-04-03T16:01:12;8.10;;;2.53;;
32323;SDS011;25666;44.350;9.222;2023-04-03T16:03:39;7.00;;;2.42;;
32323;SDS011;25666;44.350;9.222;2023-04-03T16:06:11;5.00;;;2.13;;
32323;SDS011;25666;44.350;9.222;2023-04-03T16:08:37;4.93;;;2.10;;
32323;SDS011;25666;44.350;9.222;2023-04-03T16:11:03;7.05;;;2.10;;
32323;SDS011;25666;44.350;9.222;2023-04-03T16:13:29;5.95;;;2.22;;
32323;SDS011;25666;44.350;9.222;2023-04-03T16:15:54;7.78;;;3.30;;
32323;SDS011;25666;44.350;9.222;2023-04-03T16:18:20;6.43;;;3.00;;
32323;SDS011;25666;44.350;9.222;2023-04-03T16:20:46;3.22;;;2.00;;
32323;SDS011;25666;44.350;9.222;2023-04-03T16:23:12;6.38;;;2.45;;
32323;SDS011;25666;44.350;9.222;2023-04-03T16:25:37;14.07;;;3.45;;
32323;SDS011;25666;44.350;9.222;2023-04-03T16:28:03;7.45;;;2.55;;
32323;SDS011;25666;44.350;9.222;2023-04-03T16:30:28;3.33;;;1.55;;
32323;SDS011;25666;44.350;9.222;2023-04-03T16:32:54;9.90;;;2.05;;
32323;SDS011;25666;44.350;9.222;2023-04-03T16:35:22;3.53;;;1.83;;
32323;SDS011;25666;44.350;9.222;2023-04-03T16:37:48;5.50;;;1.90;;
32323;SDS011;25666;44.350;9.222;2023-04-03T16:40:13;4.20;;;1.50;;
32323;SDS011;25666;44.350;9.222;2023-04-03T16:42:39;6.22;;;1.90;;
32323;SDS011;25666;44.350;9.222;2023-04-03T16:45:05;2.92;;;1.80;;
32323;SDS011;25666;44.350;9.222;2023-04-03T16:47:32;4.55;;;1.85;;
32323;SDS011;25666;44.350;9.222;2023-04-03T16:49:58;4.65;;;1.67;;
32323;SDS011;25666;44.350;9.222;2023-04-03T16:52:24;3.58;;;1.55;;
32323;SDS011;25666;44.350;9.222;2023-04-03T16:54:49;3.63;;;1.50;;
32323;SDS011;25666;44.350;9.222;2023-04-03T16:57:20;2.97;;;1.50;;
32323;SDS011;25666;44.350;9.222;2023-04-03T16:59:46;6.20;;;1.60;;
32323;SDS011;25666;44.350;9.222;2023-04-03T17:02:11;4.43;;;1.92;;
32323;SDS011;25666;44.350;9.222;2023-04-03T17:04:37;8.50;;;2.92;;